sensor_id;sensor_type;location;lat;lon;timestamp;temperature;humidity
44894;DHT22;30625;52.206;21.030;2023-03-02T00:39:23;2.10;99.90
44894;DHT22;30625;52.206;21.030;2023-03-02T00:44:25;2.10;99.90
44894;DHT22;30625;52.206;21.030;2023-03-02T01:00:15;1.80;99.90
44894;DHT22;30625;52.206;21.030;2023-03-02T01:05:16;1.90;99.90
44894;DHT22;30625;52.206;21.030;2023-03-02T01:07:42;1.60;99.90
44894;DHT22;30625;52.206;21.030;2023-03-02T01:17:58;1.70;99.90
44894;DHT22;30625;52.206;21.030;2023-03-02T01:38:32;1.80;99.90
44894;DHT22;30625;52.206;21.030;2023-03-02T01:40:58;1.70;99.90
44894;DHT22;30625;52.206;21.030;2023-03-02T01:43:24;1.70;99.90
44894;DHT22;30625;52.206;21.030;2023-03-02T01:51:00;1.70;99.90
44894;DHT22;30625;52.206;21.030;2023-03-02T01:58:33;1.90;99.90
44894;DHT22;30625;52.206;21.030;2023-03-02T02:03:34;1.90;99.90
44894;DHT22;30625;52.206;21.030;2023-03-02T02:16:13;1.90;99.90
44894;DHT22;30625;52.206;21.030;2023-03-02T02:18:40;3.50;99.90
44894;DHT22;30625;52.206;21.030;2023-03-02T02:21:10;2.10;99.90
44894;DHT22;30625;52.206;21.030;2023-03-02T02:23:48;3.20;99.90
44894;DHT22;30625;52.206;21.030;2023-03-02T02:31:41;2.00;99.90
44894;DHT22;30625;52.206;21.030;2023-03-02T02:42:00;2.00;99.90
44894;DHT22;30625;52.206;21.030;2023-03-02T02:49:39;2.00;99.90
44894;DHT22;30625;52.206;21.030;2023-03-02T02:54:46;2.00;99.90
44894;DHT22;30625;52.206;21.030;2023-03-02T02:57:16;2.30;99.90
44894;DHT22;30625;52.206;21.030;2023-03-02T02:59:54;3.00;99.90
44894;DHT22;30625;52.206;21.030;2023-03-02T03:04:57;2.00;99.90
44894;DHT22;30625;52.206;21.030;2023-03-02T03:07:32;0.50;99.90
44894;DHT22;30625;52.206;21.030;2023-03-02T03:12:42;2.20;99.90
44894;DHT22;30625;52.206;21.030;2023-03-02T03:17:40;2.30;99.90
44894;DHT22;30625;52.206;21.030;2023-03-02T03:22:38;2.30;99.90
44894;DHT22;30625;52.206;21.030;2023-03-02T03:25:05;3.60;99.90
44894;DHT22;30625;52.206;21.030;2023-03-02T03:27:31;1.40;99.90
44894;DHT22;30625;52.206;21.030;2023-03-02T03:29:57;2.10;99.90
44894;DHT22;30625;52.206;21.030;2023-03-02T03:32:26;2.20;99.90
44894;DHT22;30625;52.206;21.030;2023-03-02T03:34:55;2.60;99.90
44894;DHT22;30625;52.206;21.030;2023-03-02T03:37:23;2.30;99.90
44894;DHT22;30625;52.206;21.030;2023-03-02T03:39:52;2.30;99.90
44894;DHT22;30625;52.206;21.030;2023-03-02T03:42:18;1.60;99.90
44894;DHT22;30625;52.206;21.030;2023-03-02T03:44:46;2.80;99.90
44894;DHT22;30625;52.206;21.030;2023-03-02T03:49:40;2.50;99.90
44894;DHT22;30625;52.206;21.030;2023-03-02T04:00:24;2.40;99.90
44894;DHT22;30625;52.206;21.030;2023-03-02T04:10:37;2.50;99.90
44894;DHT22;30625;52.206;21.030;2023-03-02T04:20:55;2.60;99.90
44894;DHT22;30625;52.206;21.030;2023-03-02T04:33:53;2.50;99.90
44894;DHT22;30625;52.206;21.030;2023-03-02T04:36:19;2.30;99.90
44894;DHT22;30625;52.206;21.030;2023-03-02T04:38:46;3.20;99.90
44894;DHT22;30625;52.206;21.030;2023-03-02T04:41:23;2.60;99.90
44894;DHT22;30625;52.206;21.030;2023-03-02T04:43:52;3.00;99.90
44894;DHT22;30625;52.206;21.030;2023-03-02T04:51:38;2.50;99.90
44894;DHT22;30625;52.206;21.030;2023-03-02T04:54:24;1.30;99.90
44894;DHT22;30625;52.206;21.030;2023-03-02T04:59:19;2.60;99.90
44894;DHT22;30625;52.206;21.030;2023-03-02T05:01:45;2.80;99.90
44894;DHT22;30625;52.206;21.030;2023-03-02T05:04:12;3.00;99.90
44894;DHT22;30625;52.206;21.030;2023-03-02T05:06:41;2.60;99.90
44894;DHT22;30625;52.206;21.030;2023-03-02T05:14:18;2.50;99.90
44894;DHT22;30625;52.206;21.030;2023-03-02T05:16:50;2.70;99.90
44894;DHT22;30625;52.206;21.030;2023-03-02T05:19:19;3.50;99.90
44894;DHT22;30625;52.206;21.030;2023-03-02T05:24:16;2.60;99.90
44894;DHT22;30625;52.206;21.030;2023-03-02T05:34:24;2.60;99.90
44894;DHT22;30625;52.206;21.030;2023-03-02T05:36:50;2.60;99.90
44894;DHT22;30625;52.206;21.030;2023-03-02T05:39:16;2.70;99.90
44894;DHT22;30625;52.206;21.030;2023-03-02T05:41:42;2.70;99.90
44894;DHT22;30625;52.206;21.030;2023-03-02T05:44:07;3.10;99.90
44894;DHT22;30625;52.206;21.030;2023-03-02T05:46:39;2.70;99.90
44894;DHT22;30625;52.206;21.030;2023-03-02T05:49:04;2.70;99.90
44894;DHT22;30625;52.206;21.030;2023-03-02T05:51:30;2.60;99.90
44894;DHT22;30625;52.206;21.030;2023-03-02T05:53:56;2.70;99.90
44894;DHT22;30625;52.206;21.030;2023-03-02T05:56:21;2.90;99.90
44894;DHT22;30625;52.206;21.030;2023-03-02T05:58:47;2.60;99.90
44894;DHT22;30625;52.206;21.030;2023-03-02T06:01:12;2.60;99.90
44894;DHT22;30625;52.206;21.030;2023-03-02T06:03:38;2.70;99.90
44894;DHT22;30625;52.206;21.030;2023-03-02T06:06:04;2.70;99.90
44894;DHT22;30625;52.206;21.030;2023-03-02T06:08:29;2.70;99.90
44894;DHT22;30625;52.206;21.030;2023-03-02T06:10:55;2.60;99.90
44894;DHT22;30625;52.206;21.030;2023-03-02T06:13:21;2.50;99.90
44894;DHT22;30625;52.206;21.030;2023-03-02T06:15:47;2.50;99.90
44894;DHT22;30625;52.206;21.030;2023-03-02T06:18:13;2.60;99.90
44894;DHT22;30625;52.206;21.030;2023-03-02T06:20:39;2.60;99.90
44894;DHT22;30625;52.206;21.030;2023-03-02T06:23:04;2.50;99.90
44894;DHT22;30625;52.206;21.030;2023-03-02T06:25:30;2.70;99.90
44894;DHT22;30625;52.206;21.030;2023-03-02T06:27:56;3.50;99.90
44894;DHT22;30625;52.206;21.030;2023-03-02T06:30:24;2.50;99.90
44894;DHT22;30625;52.206;21.030;2023-03-02T06:35:39;2.10;99.90
44894;DHT22;30625;52.206;21.030;2023-03-02T06:38:04;2.00;99.90
44894;DHT22;30625;52.206;21.030;2023-03-02T06:40:30;2.60;99.90
44894;DHT22;30625;52.206;21.030;2023-03-02T06:42:56;2.60;99.90
44894;DHT22;30625;52.206;21.030;2023-03-02T06:45:25;2.50;99.90
44894;DHT22;30625;52.206;21.030;2023-03-02T06:47:51;2.70;99.90
44894;DHT22;30625;52.206;21.030;2023-03-02T06:50:17;2.60;99.90
44894;DHT22;30625;52.206;21.030;2023-03-02T06:52:42;2.60;99.90
44894;DHT22;30625;52.206;21.030;2023-03-02T06:55:08;2.60;99.90
44894;DHT22;30625;52.206;21.030;2023-03-02T06:57:34;2.60;99.90
44894;DHT22;30625;52.206;21.030;2023-03-02T07:00:01;2.60;99.90
44894;DHT22;30625;52.206;21.030;2023-03-02T07:02:31;2.70;99.90
44894;DHT22;30625;52.206;21.030;2023-03-02T07:04:56;2.80;99.90
44894;DHT22;30625;52.206;21.030;2023-03-02T07:07:22;2.60;99.90
44894;DHT22;30625;52.206;21.030;2023-03-02T07:09:48;2.80;99.90
44894;DHT22;30625;52.206;21.030;2023-03-02T07:12:13;2.70;99.90
44894;DHT22;30625;52.206;21.030;2023-03-02T07:14:39;2.70;99.90
44894;DHT22;30625;52.206;21.030;2023-03-02T07:17:04;2.70;99.90
44894;DHT22;30625;52.206;21.030;2023-03-02T07:19:30;2.70;99.90
44894;DHT22;30625;52.206;21.030;2023-03-02T07:21:56;2.80;99.90
44894;DHT22;30625;52.206;21.030;2023-03-02T07:24:21;2.80;99.90
44894;DHT22;30625;52.206;21.030;2023-03-02T07:26:47;2.80;99.90
44894;DHT22;30625;52.206;21.030;2023-03-02T07:29:13;2.80;99.90
44894;DHT22;30625;52.206;21.030;2023-03-02T07:31:38;2.70;99.90
44894;DHT22;30625;52.206;21.030;2023-03-02T07:34:04;2.80;99.90
44894;DHT22;30625;52.206;21.030;2023-03-02T07:36:29;2.80;99.90
44894;DHT22;30625;52.206;21.030;2023-03-02T07:38:55;2.70;99.90
44894;DHT22;30625;52.206;21.030;2023-03-02T07:41:21;2.70;99.90
44894;DHT22;30625;52.206;21.030;2023-03-02T07:43:47;2.70;99.90
44894;DHT22;30625;52.206;21.030;2023-03-02T07:46:13;4.40;99.90
44894;DHT22;30625;52.206;21.030;2023-03-02T07:48:38;4.00;99.90
44894;DHT22;30625;52.206;21.030;2023-03-02T07:51:05;2.80;99.90
44894;DHT22;30625;52.206;21.030;2023-03-02T07:53:31;2.80;99.90
44894;DHT22;30625;52.206;21.030;2023-03-02T07:55:57;2.80;99.90
44894;DHT22;30625;52.206;21.030;2023-03-02T07:58:25;2.70;99.90
44894;DHT22;30625;52.206;21.030;2023-03-02T08:00:50;2.60;99.90
44894;DHT22;30625;52.206;21.030;2023-03-02T08:03:16;3.80;99.90
44894;DHT22;30625;52.206;21.030;2023-03-02T08:05:42;2.60;99.90
44894;DHT22;30625;52.206;21.030;2023-03-02T08:08:07;2.60;99.90
44894;DHT22;30625;52.206;21.030;2023-03-02T08:10:34;4.00;99.90
44894;DHT22;30625;52.206;21.030;2023-03-02T08:13:00;2.70;99.90
44894;DHT22;30625;52.206;21.030;2023-03-02T08:15:26;4.70;99.90
44894;DHT22;30625;52.206;21.030;2023-03-02T08:17:52;2.60;99.90
44894;DHT22;30625;52.206;21.030;2023-03-02T08:20:17;2.50;99.90
44894;DHT22;30625;52.206;21.030;2023-03-02T08:22:43;2.50;99.90
44894;DHT22;30625;52.206;21.030;2023-03-02T08:25:08;2.50;99.90
44894;DHT22;30625;52.206;21.030;2023-03-02T08:27:34;2.50;99.90
44894;DHT22;30625;52.206;21.030;2023-03-02T08:30:00;2.50;99.90
44894;DHT22;30625;52.206;21.030;2023-03-02T08:32:25;2.50;99.90
44894;DHT22;30625;52.206;21.030;2023-03-02T08:34:51;2.00;99.90
44894;DHT22;30625;52.206;21.030;2023-03-02T08:37:18;2.40;99.90
44894;DHT22;30625;52.206;21.030;2023-03-02T08:39:43;2.80;99.90
44894;DHT22;30625;52.206;21.030;2023-03-02T08:42:09;2.50;99.90
44894;DHT22;30625;52.206;21.030;2023-03-02T08:44:35;2.60;99.90
44894;DHT22;30625;52.206;21.030;2023-03-02T08:47:00;2.50;99.90
44894;DHT22;30625;52.206;21.030;2023-03-02T08:49:26;2.50;99.90
44894;DHT22;30625;52.206;21.030;2023-03-02T08:51:52;2.50;99.90
44894;DHT22;30625;52.206;21.030;2023-03-02T08:54:21;2.60;99.90
44894;DHT22;30625;52.206;21.030;2023-03-02T08:56:46;2.50;99.90
44894;DHT22;30625;52.206;21.030;2023-03-02T08:59:13;2.80;99.90
44894;DHT22;30625;52.206;21.030;2023-03-02T09:01:39;2.60;99.90
44894;DHT22;30625;52.206;21.030;2023-03-02T09:04:06;3.80;99.90
44894;DHT22;30625;52.206;21.030;2023-03-02T09:06:34;4.10;99.90
44894;DHT22;30625;52.206;21.030;2023-03-02T09:09:00;2.60;99.90
44894;DHT22;30625;52.206;21.030;2023-03-02T09:11:26;2.60;99.90
44894;DHT22;30625;52.206;21.030;2023-03-02T09:13:52;2.70;99.90
44894;DHT22;30625;52.206;21.030;2023-03-02T09:16:19;2.70;99.90
44894;DHT22;30625;52.206;21.030;2023-03-02T09:18:46;2.70;99.90
44894;DHT22;30625;52.206;21.030;2023-03-02T09:21:11;2.80;99.90
44894;DHT22;30625;52.206;21.030;2023-03-02T09:23:37;2.80;99.90
44894;DHT22;30625;52.206;21.030;2023-03-02T09:26:04;2.80;99.90
44894;DHT22;30625;52.206;21.030;2023-03-02T09:28:31;2.90;99.90
44894;DHT22;30625;52.206;21.030;2023-03-02T09:31:04;2.90;99.90
44894;DHT22;30625;52.206;21.030;2023-03-02T09:33:34;4.60;99.90
44894;DHT22;30625;52.206;21.030;2023-03-02T09:36:03;3.00;99.90
44894;DHT22;30625;52.206;21.030;2023-03-02T09:38:29;4.00;99.90
44894;DHT22;30625;52.206;21.030;2023-03-02T09:48:59;3.10;99.90
44894;DHT22;30625;52.206;21.030;2023-03-02T09:51:37;3.20;99.90
44894;DHT22;30625;52.206;21.030;2023-03-02T09:56:42;3.30;99.90
44894;DHT22;30625;52.206;21.030;2023-03-02T09:59:39;3.20;99.90
44894;DHT22;30625;52.206;21.030;2023-03-02T10:02:20;3.30;99.90
44894;DHT22;30625;52.206;21.030;2023-03-02T10:04:52;3.30;99.90
44894;DHT22;30625;52.206;21.030;2023-03-02T10:07:24;3.30;99.90
44894;DHT22;30625;52.206;21.030;2023-03-02T10:09:52;1.60;99.90
44894;DHT22;30625;52.206;21.030;2023-03-02T10:15:21;3.30;99.90
44894;DHT22;30625;52.206;21.030;2023-03-02T10:18:10;3.40;99.90
44894;DHT22;30625;52.206;21.030;2023-03-02T10:20:46;3.40;99.90
44894;DHT22;30625;52.206;21.030;2023-03-02T10:26:14;3.50;99.90
44894;DHT22;30625;52.206;21.030;2023-03-02T10:28:47;3.60;99.90
44894;DHT22;30625;52.206;21.030;2023-03-02T10:31:27;4.10;99.90
44894;DHT22;30625;52.206;21.030;2023-03-02T10:33:53;3.70;99.90
44894;DHT22;30625;52.206;21.030;2023-03-02T10:38:51;3.70;99.90
44894;DHT22;30625;52.206;21.030;2023-03-02T10:41:31;5.00;99.90
44894;DHT22;30625;52.206;21.030;2023-03-02T10:44:04;3.80;99.90
44894;DHT22;30625;52.206;21.030;2023-03-02T10:46:42;3.80;99.90
44894;DHT22;30625;52.206;21.030;2023-03-02T10:49:40;3.70;99.90
44894;DHT22;30625;52.206;21.030;2023-03-02T10:52:15;3.80;99.90
44894;DHT22;30625;52.206;21.030;2023-03-02T10:54:41;3.80;99.90
44894;DHT22;30625;52.206;21.030;2023-03-02T11:00:04;3.80;99.90
44894;DHT22;30625;52.206;21.030;2023-03-02T11:02:33;3.80;99.90
44894;DHT22;30625;52.206;21.030;2023-03-02T11:05:38;3.90;99.90
44894;DHT22;30625;52.206;21.030;2023-03-02T11:08:33;4.00;99.90
44894;DHT22;30625;52.206;21.030;2023-03-02T11:21:33;4.20;99.90
44894;DHT22;30625;52.206;21.030;2023-03-02T11:24:20;4.20;99.90
44894;DHT22;30625;52.206;21.030;2023-03-02T11:34:56;4.10;99.90
44894;DHT22;30625;52.206;21.030;2023-03-02T11:40:23;4.20;99.90
44894;DHT22;30625;52.206;21.030;2023-03-02T11:42:52;4.30;99.90
44894;DHT22;30625;52.206;21.030;2023-03-02T11:45:25;5.60;99.90
44894;DHT22;30625;52.206;21.030;2023-03-02T11:48:05;4.30;99.90
44894;DHT22;30625;52.206;21.030;2023-03-02T11:50:39;4.30;99.90
44894;DHT22;30625;52.206;21.030;2023-03-02T11:53:12;4.30;99.90
44894;DHT22;30625;52.206;21.030;2023-03-02T11:55:42;4.30;99.90
44894;DHT22;30625;52.206;21.030;2023-03-02T11:58:17;5.70;99.90
44894;DHT22;30625;52.206;21.030;2023-03-02T12:00:43;3.40;99.90
44894;DHT22;30625;52.206;21.030;2023-03-02T12:05:57;4.10;99.90
44894;DHT22;30625;52.206;21.030;2023-03-02T12:11:00;5.30;99.90
44894;DHT22;30625;52.206;21.030;2023-03-02T12:13:29;3.60;99.90
44894;DHT22;30625;52.206;21.030;2023-03-02T12:15:55;4.30;99.90
44894;DHT22;30625;52.206;21.030;2023-03-02T12:23:33;4.30;99.90
44894;DHT22;30625;52.206;21.030;2023-03-02T12:29:22;3.60;99.90
44894;DHT22;30625;52.206;21.030;2023-03-02T12:31:54;5.70;99.90
44894;DHT22;30625;52.206;21.030;2023-03-02T12:36:58;4.50;99.90
44894;DHT22;30625;52.206;21.030;2023-03-02T12:39:49;2.70;99.90
44894;DHT22;30625;52.206;21.030;2023-03-02T12:47:43;4.30;99.90
44894;DHT22;30625;52.206;21.030;2023-03-02T12:50:22;4.50;99.90
44894;DHT22;30625;52.206;21.030;2023-03-02T12:53:06;5.50;99.90
44894;DHT22;30625;52.206;21.030;2023-03-02T12:55:38;4.30;99.90
44894;DHT22;30625;52.206;21.030;2023-03-02T12:58:18;4.40;99.90
44894;DHT22;30625;52.206;21.030;2023-03-02T13:01:02;4.40;99.90
44894;DHT22;30625;52.206;21.030;2023-03-02T13:03:30;4.40;99.90
44894;DHT22;30625;52.206;21.030;2023-03-02T13:06:14;4.30;99.90
44894;DHT22;30625;52.206;21.030;2023-03-02T13:08:43;6.30;99.90
44894;DHT22;30625;52.206;21.030;2023-03-02T13:11:09;5.50;99.90
44894;DHT22;30625;52.206;21.030;2023-03-02T13:13:38;4.30;99.90
44894;DHT22;30625;52.206;21.030;2023-03-02T13:16:21;4.30;99.90
44894;DHT22;30625;52.206;21.030;2023-03-02T13:18:49;4.40;99.90
44894;DHT22;30625;52.206;21.030;2023-03-02T13:21:30;6.00;99.90
44894;DHT22;30625;52.206;21.030;2023-03-02T13:24:00;4.50;99.90
44894;DHT22;30625;52.206;21.030;2023-03-02T13:26:36;6.60;99.90
44894;DHT22;30625;52.206;21.030;2023-03-02T13:29:16;4.70;99.90
44894;DHT22;30625;52.206;21.030;2023-03-02T13:31:48;3.50;99.90
44894;DHT22;30625;52.206;21.030;2023-03-02T13:34:29;5.70;99.90
44894;DHT22;30625;52.206;21.030;2023-03-02T13:37:00;4.70;99.90
44894;DHT22;30625;52.206;21.030;2023-03-02T13:39:32;5.40;99.90
44894;DHT22;30625;52.206;21.030;2023-03-02T13:45:31;4.70;99.90
44894;DHT22;30625;52.206;21.030;2023-03-02T13:48:12;4.60;99.90
44894;DHT22;30625;52.206;21.030;2023-03-02T13:51:14;4.60;99.90
44894;DHT22;30625;52.206;21.030;2023-03-02T13:54:18;4.10;99.90
44894;DHT22;30625;52.206;21.030;2023-03-02T13:56:42;6.30;99.90
44894;DHT22;30625;52.206;21.030;2023-03-02T13:59:18;5.70;99.90
44894;DHT22;30625;52.206;21.030;2023-03-02T14:01:47;4.60;99.90
44894;DHT22;30625;52.206;21.030;2023-03-02T14:04:21;3.50;99.90
44894;DHT22;30625;52.206;21.030;2023-03-02T14:07:02;3.80;99.90
44894;DHT22;30625;52.206;21.030;2023-03-02T14:09:28;4.60;99.90
44894;DHT22;30625;52.206;21.030;2023-03-02T14:11:57;4.60;99.90
44894;DHT22;30625;52.206;21.030;2023-03-02T14:14:23;4.50;99.90
44894;DHT22;30625;52.206;21.030;2023-03-02T14:16:51;4.60;99.90
44894;DHT22;30625;52.206;21.030;2023-03-02T14:19:16;4.60;99.90
44894;DHT22;30625;52.206;21.030;2023-03-02T14:21:45;4.60;99.90
44894;DHT22;30625;52.206;21.030;2023-03-02T14:24:17;5.00;99.90
44894;DHT22;30625;52.206;21.030;2023-03-02T14:26:47;4.70;99.90
44894;DHT22;30625;52.206;21.030;2023-03-02T14:29:23;4.50;99.90
44894;DHT22;30625;52.206;21.030;2023-03-02T14:37:16;4.60;99.90
44894;DHT22;30625;52.206;21.030;2023-03-02T14:39:51;4.40;99.90
44894;DHT22;30625;52.206;21.030;2023-03-02T14:42:48;5.20;99.90
44894;DHT22;30625;52.206;21.030;2023-03-02T14:45:13;5.10;99.90
44894;DHT22;30625;52.206;21.030;2023-03-02T14:47:44;6.20;99.90
44894;DHT22;30625;52.206;21.030;2023-03-02T14:50:14;4.30;99.90
44894;DHT22;30625;52.206;21.030;2023-03-02T14:52:52;3.80;99.90
44894;DHT22;30625;52.206;21.030;2023-03-02T14:55:33;4.50;99.90
44894;DHT22;30625;52.206;21.030;2023-03-02T14:58:10;4.50;99.90
44894;DHT22;30625;52.206;21.030;2023-03-02T15:00:38;4.60;99.90
44894;DHT22;30625;52.206;21.030;2023-03-02T15:03:06;4.60;99.90
44894;DHT22;30625;52.206;21.030;2023-03-02T15:05:32;4.70;99.90
44894;DHT22;30625;52.206;21.030;2023-03-02T15:08:00;4.60;99.90
44894;DHT22;30625;52.206;21.030;2023-03-02T15:10:29;4.60;99.90
44894;DHT22;30625;52.206;21.030;2023-03-02T15:13:09;4.50;99.90
44894;DHT22;30625;52.206;21.030;2023-03-02T15:15:38;4.70;99.90
44894;DHT22;30625;52.206;21.030;2023-03-02T15:18:11;4.70;99.90
44894;DHT22;30625;52.206;21.030;2023-03-02T15:20:39;4.60;99.90
44894;DHT22;30625;52.206;21.030;2023-03-02T15:23:08;4.70;99.90
44894;DHT22;30625;52.206;21.030;2023-03-02T15:25:34;4.60;99.90
44894;DHT22;30625;52.206;21.030;2023-03-02T15:28:02;4.60;99.90
44894;DHT22;30625;52.206;21.030;2023-03-02T15:30:31;4.60;99.90
44894;DHT22;30625;52.206;21.030;2023-03-02T15:33:00;4.60;99.90
44894;DHT22;30625;52.206;21.030;2023-03-02T15:35:29;4.40;99.90
44894;DHT22;30625;52.206;21.030;2023-03-02T15:37:55;2.90;99.90
44894;DHT22;30625;52.206;21.030;2023-03-02T15:40:47;4.40;99.90
44894;DHT22;30625;52.206;21.030;2023-03-02T15:43:13;4.30;99.90
44894;DHT22;30625;52.206;21.030;2023-03-02T15:45:43;5.50;99.90
44894;DHT22;30625;52.206;21.030;2023-03-02T15:48:10;4.20;99.90
44894;DHT22;30625;52.206;21.030;2023-03-02T15:50:36;4.30;99.90
44894;DHT22;30625;52.206;21.030;2023-03-02T15:53:10;3.40;99.90
44894;DHT22;30625;52.206;21.030;2023-03-02T15:55:39;4.10;99.90
44894;DHT22;30625;52.206;21.030;2023-03-02T15:58:11;5.20;99.90
44894;DHT22;30625;52.206;21.030;2023-03-02T16:00:38;3.80;99.90
44894;DHT22;30625;52.206;21.030;2023-03-02T16:03:07;3.80;99.90
44894;DHT22;30625;52.206;21.030;2023-03-02T16:05:33;3.80;99.90
44894;DHT22;30625;52.206;21.030;2023-03-02T16:08:03;5.20;99.90
44894;DHT22;30625;52.206;21.030;2023-03-02T16:10:32;5.10;99.90
44894;DHT22;30625;52.206;21.030;2023-03-02T16:13:04;3.60;99.90
44894;DHT22;30625;52.206;21.030;2023-03-02T16:15:36;3.10;99.90
44894;DHT22;30625;52.206;21.030;2023-03-02T16:18:11;3.50;99.90
44894;DHT22;30625;52.206;21.030;2023-03-02T16:20:39;3.40;99.90
44894;DHT22;30625;52.206;21.030;2023-03-02T16:23:06;3.40;99.90
44894;DHT22;30625;52.206;21.030;2023-03-02T16:25:36;3.30;99.90
44894;DHT22;30625;52.206;21.030;2023-03-02T16:28:11;3.20;99.90
44894;DHT22;30625;52.206;21.030;2023-03-02T16:30:38;2.50;99.90
44894;DHT22;30625;52.206;21.030;2023-03-02T16:33:16;4.20;99.90
44894;DHT22;30625;52.206;21.030;2023-03-02T16:35:46;3.00;99.90
44894;DHT22;30625;52.206;21.030;2023-03-02T16:38:22;3.00;99.90
44894;DHT22;30625;52.206;21.030;2023-03-02T16:40:53;2.90;99.90
44894;DHT22;30625;52.206;21.030;2023-03-02T16:43:29;1.90;99.90
44894;DHT22;30625;52.206;21.030;2023-03-02T16:46:00;2.90;99.90
44894;DHT22;30625;52.206;21.030;2023-03-02T16:48:26;3.80;99.90
44894;DHT22;30625;52.206;21.030;2023-03-02T16:50:57;2.80;99.90
44894;DHT22;30625;52.206;21.030;2023-03-02T16:53:23;2.70;99.90
44894;DHT22;30625;52.206;21.030;2023-03-02T16:55:51;2.60;99.90
44894;DHT22;30625;52.206;21.030;2023-03-02T16:58:18;2.60;99.90
44894;DHT22;30625;52.206;21.030;2023-03-02T17:00:44;2.60;99.90
44894;DHT22;30625;52.206;21.030;2023-03-02T17:03:10;1.20;99.90
44894;DHT22;30625;52.206;21.030;2023-03-02T17:05:36;2.50;99.90
44894;DHT22;30625;52.206;21.030;2023-03-02T17:08:01;1.30;99.90
44894;DHT22;30625;52.206;21.030;2023-03-02T17:10:29;2.40;99.90
44894;DHT22;30625;52.206;21.030;2023-03-02T17:12:55;2.40;99.90
44894;DHT22;30625;52.206;21.030;2023-03-02T17:15:20;3.90;99.90
44894;DHT22;30625;52.206;21.030;2023-03-02T17:17:46;2.30;99.90
44894;DHT22;30625;52.206;21.030;2023-03-02T17:20:13;2.40;99.90
44894;DHT22;30625;52.206;21.030;2023-03-02T17:22:38;2.10;99.90
44894;DHT22;30625;52.206;21.030;2023-03-02T17:25:05;2.40;99.90
44894;DHT22;30625;52.206;21.030;2023-03-02T17:27:34;1.30;99.90
44894;DHT22;30625;52.206;21.030;2023-03-02T17:29:59;3.00;99.90
44894;DHT22;30625;52.206;21.030;2023-03-02T17:32:28;2.80;99.90
44894;DHT22;30625;52.206;21.030;2023-03-02T17:34:54;2.20;99.90
44894;DHT22;30625;52.206;21.030;2023-03-02T17:37:21;1.20;99.90
44894;DHT22;30625;52.206;21.030;2023-03-02T17:39:50;3.30;99.90
44894;DHT22;30625;52.206;21.030;2023-03-02T17:42:16;2.00;99.90
44894;DHT22;30625;52.206;21.030;2023-03-02T17:44:42;2.00;99.90
44894;DHT22;30625;52.206;21.030;2023-03-02T17:47:09;2.00;99.90
44894;DHT22;30625;52.206;21.030;2023-03-02T17:49:39;2.00;99.90
44894;DHT22;30625;52.206;21.030;2023-03-02T17:52:05;2.00;99.90
44894;DHT22;30625;52.206;21.030;2023-03-02T17:54:30;2.00;99.90
44894;DHT22;30625;52.206;21.030;2023-03-02T17:56:56;3.40;99.90
44894;DHT22;30625;52.206;21.030;2023-03-02T17:59:22;1.90;99.90
44894;DHT22;30625;52.206;21.030;2023-03-02T18:01:48;2.60;99.90
44894;DHT22;30625;52.206;21.030;2023-03-02T18:04:13;1.90;99.90
44894;DHT22;30625;52.206;21.030;2023-03-02T18:06:39;1.80;99.90
44894;DHT22;30625;52.206;21.030;2023-03-02T18:09:05;1.80;99.90
44894;DHT22;30625;52.206;21.030;2023-03-02T18:11:31;1.70;99.90
44894;DHT22;30625;52.206;21.030;2023-03-02T18:13:56;3.10;99.90
44894;DHT22;30625;52.206;21.030;2023-03-02T18:16:24;1.80;99.90
44894;DHT22;30625;52.206;21.030;2023-03-02T18:18:50;1.80;99.90
44894;DHT22;30625;52.206;21.030;2023-03-02T18:21:16;2.30;99.90
44894;DHT22;30625;52.206;21.030;2023-03-02T18:23:43;1.80;99.90
44894;DHT22;30625;52.206;21.030;2023-03-02T18:26:15;1.80;99.90
44894;DHT22;30625;52.206;21.030;2023-03-02T18:28:41;1.70;99.90
44894;DHT22;30625;52.206;21.030;2023-03-02T18:31:07;2.60;99.90
44894;DHT22;30625;52.206;21.030;2023-03-02T18:33:33;1.70;99.90
44894;DHT22;30625;52.206;21.030;2023-03-02T18:35:59;1.70;99.90
44894;DHT22;30625;52.206;21.030;2023-03-02T18:38:30;1.70;99.90
44894;DHT22;30625;52.206;21.030;2023-03-02T18:40:57;1.60;99.90
44894;DHT22;30625;52.206;21.030;2023-03-02T18:43:26;1.50;99.90
44894;DHT22;30625;52.206;21.030;2023-03-02T18:45:51;1.60;99.90
44894;DHT22;30625;52.206;21.030;2023-03-02T18:48:17;1.60;99.90
44894;DHT22;30625;52.206;21.030;2023-03-02T18:50:43;1.60;99.90
44894;DHT22;30625;52.206;21.030;2023-03-02T18:53:09;1.60;99.90
44894;DHT22;30625;52.206;21.030;2023-03-02T18:55:34;1.80;99.90
44894;DHT22;30625;52.206;21.030;2023-03-02T18:58:05;1.50;99.90
44894;DHT22;30625;52.206;21.030;2023-03-02T19:00:30;2.80;99.90
44894;DHT22;30625;52.206;21.030;2023-03-02T19:02:56;1.50;99.90
44894;DHT22;30625;52.206;21.030;2023-03-02T19:05:22;1.50;99.90
44894;DHT22;30625;52.206;21.030;2023-03-02T19:07:49;1.50;99.90
44894;DHT22;30625;52.206;21.030;2023-03-02T19:10:16;1.50;99.90
44894;DHT22;30625;52.206;21.030;2023-03-02T19:12:42;1.50;99.90
44894;DHT22;30625;52.206;21.030;2023-03-02T19:15:11;1.50;99.90
44894;DHT22;30625;52.206;21.030;2023-03-02T19:17:39;1.40;99.90
44894;DHT22;30625;52.206;21.030;2023-03-02T19:20:08;1.50;99.90
44894;DHT22;30625;52.206;21.030;2023-03-02T19:22:34;1.50;99.90
44894;DHT22;30625;52.206;21.030;2023-03-02T19:25:00;1.40;99.90
44894;DHT22;30625;52.206;21.030;2023-03-02T19:27:26;1.50;99.90
44894;DHT22;30625;52.206;21.030;2023-03-02T19:29:52;1.50;99.90
44894;DHT22;30625;52.206;21.030;2023-03-02T19:32:19;1.50;99.90
44894;DHT22;30625;52.206;21.030;2023-03-02T19:34:46;1.60;99.90
44894;DHT22;30625;52.206;21.030;2023-03-02T19:37:32;3.20;99.90
44894;DHT22;30625;52.206;21.030;2023-03-02T19:40:21;0.10;99.90
44894;DHT22;30625;52.206;21.030;2023-03-02T19:43:00;2.50;99.90
44894;DHT22;30625;52.206;21.030;2023-03-02T19:45:33;1.80;99.90
44894;DHT22;30625;52.206;21.030;2023-03-02T19:48:15;1.40;99.90
44894;DHT22;30625;52.206;21.030;2023-03-02T19:50:48;2.70;99.90
44894;DHT22;30625;52.206;21.030;2023-03-02T19:53:17;2.80;99.90
44894;DHT22;30625;52.206;21.030;2023-03-02T19:55:44;1.50;99.90
44894;DHT22;30625;52.206;21.030;2023-03-02T19:58:25;1.50;99.90
44894;DHT22;30625;52.206;21.030;2023-03-02T20:00:52;1.40;99.90
44894;DHT22;30625;52.206;21.030;2023-03-02T20:03:40;0.10;99.90
44894;DHT22;30625;52.206;21.030;2023-03-02T20:06:22;1.40;99.90
44894;DHT22;30625;52.206;21.030;2023-03-02T20:09:20;0.90;99.90
44894;DHT22;30625;52.206;21.030;2023-03-02T20:12:22;1.40;99.90
44894;DHT22;30625;52.206;21.030;2023-03-02T20:15:04;1.50;99.90
44894;DHT22;30625;52.206;21.030;2023-03-02T20:17:35;1.40;99.90
44894;DHT22;30625;52.206;21.030;2023-03-02T20:20:05;1.80;99.90